Time;durP1;ratioP1;P1;durP2;ratioP2;P2;SDS_P1;SDS_P2;PMS_P1;PMS_P2;Temp;Humidity;BMP_temperature;BMP_pressure;BME280_temperature;BME280_humidity;BME280_pressure;Samples;Min_cycle;Max_cycle;Signal;HPM_P1;HPM_P2
2022/07/20 00:01:48;;;;;;;0.00;0.00;;;24.90;50.50;;;;;;5059241;28;20047;-66
2022/07/20 00:04:13;;;;;;;0.00;0.00;;;24.80;50.90;;;;;;5058252;28;20567;-66
2022/07/20 00:06:39;;;;;;;0.00;0.00;;;24.70;51.20;;;;;;5061126;28;20124;-66
2022/07/20 00:11:49;;;;;;;0.00;0.00;;;24.60;51.70;;;;;;5054035;28;20095;-66
2022/07/20 00:14:14;;;;;;;0.00;0.00;;;24.60;51.90;;;;;;5055825;28;20055;-66
2022/07/20 00:16:40;;;;;;;0.00;0.00;;;24.50;51.90;;;;;;5060310;28;20445;-67
2022/07/20 00:19:06;;;;;;;0.00;0.00;;;24.50;51.80;;;;;;5058566;28;20083;-66
2022/07/20 00:21:32;;;;;;;0.00;0.00;;;24.40;51.30;;;;;;5060135;28;20036;-66
2022/07/20 00:23:57;;;;;;;0.00;0.00;;;24.40;51.00;;;;;;5059939;28;20040;-66
2022/07/20 00:26:23;;;;;;;0.00;0.00;;;24.30;51.10;;;;;;5059865;28;20052;-66
2022/07/20 00:28:51;;;;;;;0.00;0.00;;;24.30;51.00;;;;;;5060960;28;20054;-66
2022/07/20 00:31:18;;;;;;;0.00;0.00;;;24.30;50.80;;;;;;5057933;28;20071;-66
2022/07/20 00:33:48;;;;;;;0.00;0.00;;;24.20;51.00;;;;;;5057754;28;20051;-66
2022/07/20 00:36:14;;;;;;;0.00;0.00;;;24.20;50.90;;;;;;5058318;28;20501;-66
2022/07/20 00:38:40;;;;;;;0.00;0.00;;;24.20;51.10;;;;;;5057293;28;20056;-66
2022/07/20 00:41:06;;;;;;;0.00;0.00;;;24.10;51.00;;;;;;5054525;28;20063;-66
2022/07/20 00:44:01;;;;;;;0.00;0.00;;;24.10;51.00;;;;;;5054202;28;20037;-66
2022/07/20 00:46:30;;;;;;;0.00;0.00;;;24.10;50.90;;;;;;5058201;28;20076;-67
2022/07/20 00:48:55;;;;;;;0.00;0.00;;;24.10;51.00;;;;;;5060749;28;20047;-66
2022/07/20 00:51:21;;;;;;;0.00;0.00;;;24.00;51.20;;;;;;5061096;28;20041;-66
2022/07/20 00:53:49;;;;;;;0.00;0.00;;;24.00;51.40;;;;;;5056832;28;20648;-67
2022/07/20 00:56:16;;;;;;;0.00;0.00;;;24.00;51.50;;;;;;5057542;28;20037;-66
2022/07/20 00:58:42;;;;;;;0.10;0.10;;;24.00;51.50;;;;;;5060798;28;20397;-66
2022/07/20 01:01:07;;;;;;;0.00;0.00;;;24.00;51.30;;;;;;5061821;28;20048;-65
2022/07/20 01:03:33;;;;;;;0.00;0.00;;;23.90;51.30;;;;;;5043520;28;20392;-65
2022/07/20 01:05:59;;;;;;;0.00;0.00;;;23.80;51.20;;;;;;5063714;28;20056;-66
2022/07/20 01:08:26;;;;;;;0.00;0.00;;;23.80;51.40;;;;;;5058152;28;20037;-67
2022/07/20 01:10:52;;;;;;;0.73;0.45;;;23.80;51.20;;;;;;5062802;28;20494;-66
2022/07/20 01:13:18;;;;;;;0.00;0.00;;;23.70;51.10;;;;;;5058669;28;20049;-66
2022/07/20 01:15:45;;;;;;;0.00;0.00;;;23.70;51.30;;;;;;5056683;28;20123;-66
2022/07/20 01:18:11;;;;;;;0.00;0.00;;;23.60;51.10;;;;;;5060549;28;20041;-66
2022/07/20 01:20:39;;;;;;;0.00;0.00;;;23.60;51.20;;;;;;5061342;28;20032;-66
2022/07/20 01:23:04;;;;;;;0.00;0.00;;;23.50;51.20;;;;;;5060669;28;20053;-66
2022/07/20 01:25:35;;;;;;;0.00;0.00;;;23.60;51.50;;;;;;5059736;28;20466;-65
2022/07/20 01:28:11;;;;;;;0.00;0.00;;;23.50;51.40;;;;;;5057849;28;20049;-65
2022/07/20 01:30:38;;;;;;;0.00;0.00;;;23.50;51.50;;;;;;5058040;28;20497;-65
2022/07/20 01:33:04;;;;;;;0.00;0.00;;;23.50;51.70;;;;;;5056644;28;20033;-65
2022/07/20 01:35:30;;;;;;;0.00;0.00;;;23.50;51.50;;;;;;5059074;28;20060;-65
2022/07/20 01:37:55;;;;;;;0.00;0.00;;;23.50;51.60;;;;;;5062539;28;20105;-65
2022/07/20 01:40:21;;;;;;;0.00;0.00;;;23.40;51.70;;;;;;5058109;28;20091;-65
2022/07/20 01:42:47;;;;;;;0.00;0.00;;;23.40;51.80;;;;;;5058880;28;20413;-65
2022/07/20 01:45:13;;;;;;;0.00;0.00;;;23.40;51.90;;;;;;5064031;28;20036;-65
2022/07/20 01:47:38;;;;;;;0.00;0.00;;;23.30;51.80;;;;;;5063702;28;20033;-66
2022/07/20 01:50:05;;;;;;;0.00;0.00;;;23.30;51.80;;;;;;5060891;28;20128;-66
2022/07/20 01:52:30;;;;;;;0.08;0.08;;;23.30;52.00;;;;;;5059092;28;20045;-66
2022/07/20 01:54:56;;;;;;;0.00;0.00;;;23.30;52.10;;;;;;5056615;28;20485;-65
2022/07/20 01:57:21;;;;;;;0.00;0.00;;;23.30;52.30;;;;;;5056573;28;20560;-65
2022/07/20 01:59:47;;;;;;;0.00;0.00;;;23.20;52.40;;;;;;5061734;28;20040;-66
2022/07/20 02:02:13;;;;;;;0.00;0.00;;;23.20;52.30;;;;;;5053791;28;20036;-66
2022/07/20 02:04:38;;;;;;;0.00;0.00;;;23.10;52.20;;;;;;5064471;28;20127;-66
2022/07/20 02:07:04;;;;;;;0.00;0.00;;;23.10;52.30;;;;;;5050814;28;20041;-65
2022/07/20 02:09:30;;;;;;;0.00;0.00;;;23.10;52.10;;;;;;5071104;28;20060;-66
2022/07/20 02:11:55;;;;;;;0.00;0.00;;;23.00;52.00;;;;;;5061674;28;20048;-66
2022/07/20 02:14:21;;;;;;;0.00;0.00;;;23.00;52.10;;;;;;5063967;28;20057;-67
2022/07/20 02:16:47;;;;;;;0.00;0.00;;;23.00;52.20;;;;;;5054417;28;20417;-66
2022/07/20 02:19:13;;;;;;;0.00;0.00;;;23.00;52.50;;;;;;5056716;28;20037;-66
2022/07/20 02:21:38;;;;;;;0.00;0.00;;;22.90;52.40;;;;;;5050017;28;20053;-66
2022/07/20 02:24:05;;;;;;;0.00;0.00;;;22.90;52.40;;;;;;5052955;28;20048;-66
2022/07/20 02:26:30;;;;;;;0.00;0.00;;;22.90;52.30;;;;;;5070937;28;20713;-66
2022/07/20 02:28:56;;;;;;;0.00;0.00;;;22.80;52.30;;;;;;5070964;28;20101;-66
2022/07/20 02:31:23;;;;;;;0.00;0.00;;;22.80;52.10;;;;;;5070954;28;20045;-66
2022/07/20 02:33:49;;;;;;;0.00;0.00;;;22.80;52.30;;;;;;5062657;28;20116;-66
2022/07/20 02:36:15;;;;;;;0.00;0.00;;;22.70;52.20;;;;;;5057092;28;20047;-66
2022/07/20 02:38:41;;;;;;;0.00;0.00;;;22.70;52.30;;;;;;5070321;28;20037;-66
2022/07/20 02:41:06;;;;;;;0.00;0.00;;;22.70;52.30;;;;;;5059106;28;20044;-65
2022/07/20 02:43:32;;;;;;;0.00;0.00;;;22.70;52.30;;;;;;5064346;28;20449;-66
2022/07/20 02:45:58;;;;;;;0.00;0.00;;;22.60;52.40;;;;;;5066921;28;20044;-66
2022/07/20 02:48:23;;;;;;;0.00;0.00;;;22.60;52.30;;;;;;5065968;28;20110;-67
2022/07/20 02:50:49;;;;;;;0.00;0.00;;;22.60;52.40;;;;;;5062537;28;20043;-66
2022/07/20 02:53:15;;;;;;;0.00;0.00;;;22.50;52.40;;;;;;5055137;28;20078;-66
2022/07/20 02:55:43;;;;;;;0.00;0.00;;;22.50;52.20;;;;;;5050137;28;20037;-66
2022/07/20 02:58:10;;;;;;;0.00;0.00;;;22.50;52.20;;;;;;5050232;28;20041;-66
2022/07/20 03:00:36;;;;;;;0.00;0.00;;;22.50;52.10;;;;;;5063507;28;20111;-66
2022/07/20 03:03:03;;;;;;;0.00;0.00;;;22.50;52.60;;;;;;5051136;28;20072;-66
2022/07/20 03:05:29;;;;;;;0.03;0.03;;;22.50;52.60;;;;;;5061015;28;20512;-65
2022/07/20 03:07:54;;;;;;;0.00;0.00;;;22.50;53.10;;;;;;5049921;28;20045;-66
2022/07/20 03:10:20;;;;;;;0.00;0.00;;;22.40;53.40;;;;;;5066719;28;20052;-65
2022/07/20 03:12:45;;;;;;;0.00;0.00;;;22.40;53.60;;;;;;5070092;28;20087;-66
2022/07/20 03:15:12;;;;;;;0.00;0.00;;;22.40;53.70;;;;;;5050862;28;20080;-65
2022/07/20 03:17:42;;;;;;;0.00;0.00;;;22.30;53.40;;;;;;5067071;28;20139;-66
2022/07/20 03:20:09;;;;;;;0.00;0.00;;;22.30;53.80;;;;;;5054090;28;20053;-65
2022/07/20 03:22:35;;;;;;;0.00;0.00;;;22.20;53.20;;;;;;5049785;28;20118;-65
2022/07/20 03:25:01;;;;;;;0.00;0.00;;;22.20;53.20;;;;;;5050152;28;20048;-66
2022/07/20 03:27:26;;;;;;;0.00;0.00;;;22.20;53.30;;;;;;5050084;28;20084;-65
2022/07/20 03:29:52;;;;;;;0.00;0.00;;;22.20;53.40;;;;;;5061466;28;20090;-65
2022/07/20 03:32:17;;;;;;;0.13;0.13;;;22.10;54.00;;;;;;5068200;28;20074;-65
2022/07/20 03:34:43;;;;;;;0.00;0.00;;;22.10;54.30;;;;;;5068436;28;20047;-65
2022/07/20 03:37:08;;;;;;;0.00;0.00;;;22.10;53.90;;;;;;5064001;28;20039;-65
2022/07/20 03:39:34;;;;;;;0.00;0.00;;;22.00;54.60;;;;;;5056843;28;20041;-66
2022/07/20 03:42:00;;;;;;;0.00;0.00;;;22.00;54.00;;;;;;5049542;28;20045;-66
2022/07/20 03:44:25;;;;;;;0.00;0.00;;;22.00;54.30;;;;;;5057883;28;20037;-66
2022/07/20 03:46:51;;;;;;;0.00;0.00;;;21.90;54.10;;;;;;5049570;28;20045;-66
2022/07/20 03:49:16;;;;;;;0.00;0.00;;;21.90;54.90;;;;;;5062035;28;20119;-65
2022/07/20 03:51:42;;;;;;;0.00;0.00;;;21.90;54.50;;;;;;5069059;28;20455;-66
2022/07/20 03:54:07;;;;;;;0.00;0.00;;;21.80;54.70;;;;;;5054345;28;20073;-66
2022/07/20 03:56:39;;;;;;;0.00;0.00;;;21.80;54.70;;;;;;5048955;28;20045;-65
2022/07/20 03:59:06;;;;;;;0.00;0.00;;;21.80;54.80;;;;;;5060735;28;20044;-65
2022/07/20 04:01:31;;;;;;;0.00;0.00;;;21.90;54.60;;;;;;5065670;28;20075;-65
2022/07/20 04:03:57;;;;;;;0.00;0.00;;;21.90;54.70;;;;;;5051006;28;20481;-66
2022/07/20 04:06:22;;;;;;;0.00;0.00;;;21.80;55.10;;;;;;5068254;28;20048;-66
2022/07/20 04:08:48;;;;;;;0.00;0.00;;;21.80;54.80;;;;;;5061906;28;20041;-65
2022/07/20 04:11:14;;;;;;;0.00;0.00;;;21.80;54.70;;;;;;5060296;28;20523;-66
2022/07/20 04:13:39;;;;;;;0.00;0.00;;;21.80;54.50;;;;;;5068301;28;20405;-66
2022/07/20 04:16:05;;;;;;;0.00;0.00;;;21.90;54.50;;;;;;5069198;28;20041;-65
2022/07/20 04:18:31;;;;;;;0.00;0.00;;;21.90;54.60;;;;;;5057845;28;20209;-66
2022/07/20 04:20:57;;;;;;;0.00;0.00;;;21.90;54.80;;;;;;5067834;28;20060;-68
2022/07/20 04:23:22;;;;;;;0.00;0.00;;;21.90;55.20;;;;;;5058951;28;20462;-68
2022/07/20 04:25:48;;;;;;;0.00;0.00;;;21.90;55.20;;;;;;5066631;28;20098;-65
2022/07/20 04:28:14;;;;;;;0.00;0.00;;;21.90;55.40;;;;;;5057067;28;20045;-66
2022/07/20 04:30:39;;;;;;;0.00;0.00;;;21.90;55.50;;;;;;5051023;28;20131;-65
2022/07/20 04:33:05;;;;;;;0.00;0.00;;;21.90;55.40;;;;;;5064449;28;20462;-66
2022/07/20 04:35:31;;;;;;;0.00;0.00;;;21.80;55.90;;;;;;5062809;28;20102;-66
2022/07/20 04:37:57;;;;;;;0.00;0.00;;;21.90;55.50;;;;;;5063737;28;20406;-66
2022/07/20 04:40:22;;;;;;;0.00;0.00;;;21.90;55.90;;;;;;5056513;28;20052;-66
2022/07/20 04:42:48;;;;;;;0.10;0.10;;;21.90;55.80;;;;;;5052154;28;20067;-69
2022/07/20 04:45:13;;;;;;;0.00;0.00;;;21.90;56.20;;;;;;5056179;28;20057;-67
2022/07/20 04:47:39;;;;;;;0.00;0.00;;;22.00;56.30;;;;;;5061506;28;20048;-67
2022/07/20 04:50:05;;;;;;;0.00;0.00;;;22.00;56.50;;;;;;5062846;28;20045;-67
2022/07/20 04:52:31;;;;;;;0.00;0.00;;;22.00;56.40;;;;;;5053134;28;20407;-67
2022/07/20 04:54:56;;;;;;;0.00;0.00;;;22.00;56.60;;;;;;5055402;28;20059;-67
2022/07/20 04:57:22;;;;;;;0.00;0.00;;;22.00;56.50;;;;;;5061720;28;20048;-67
2022/07/20 04:59:48;;;;;;;0.00;0.00;;;22.10;57.30;;;;;;5052091;28;20060;-67
2022/07/20 05:02:13;;;;;;;0.00;0.00;;;22.10;56.80;;;;;;5052161;28;20450;-67
2022/07/20 05:04:39;;;;;;;0.00;0.00;;;22.10;57.20;;;;;;5053410;28;20118;-67
2022/07/20 05:07:04;;;;;;;0.00;0.00;;;22.20;57.30;;;;;;5061025;28;20492;-67
2022/07/20 05:09:30;;;;;;;0.00;0.00;;;22.30;57.20;;;;;;5059959;28;20085;-67
2022/07/20 05:11:56;;;;;;;0.00;0.00;;;22.30;57.60;;;;;;5060105;28;20090;-67
2022/07/20 05:14:21;;;;;;;0.00;0.00;;;22.40;57.30;;;;;;5063215;28;20029;-67
2022/07/20 05:16:47;;;;;;;0.00;0.00;;;22.40;57.20;;;;;;5053189;28;20037;-67
2022/07/20 05:19:13;;;;;;;0.00;0.00;;;22.50;56.30;;;;;;5058737;28;20045;-67
2022/07/20 05:21:38;;;;;;;0.03;0.03;;;22.50;56.10;;;;;;5061651;28;20040;-67
2022/07/20 05:24:04;;;;;;;0.00;0.00;;;22.60;56.10;;;;;;5071680;28;20079;-67
2022/07/20 05:26:30;;;;;;;0.00;0.00;;;22.70;55.00;;;;;;5070873;28;20032;-67
2022/07/20 05:28:56;;;;;;;0.00;0.00;;;22.80;54.70;;;;;;5070488;28;20107;-67
2022/07/20 05:31:21;;;;;;;0.00;0.00;;;22.90;54.40;;;;;;5070061;28;20053;-67
2022/07/20 05:33:47;;;;;;;0.55;0.55;;;23.00;54.40;;;;;;5068752;28;20390;-65
2022/07/20 05:36:13;;;;;;;0.00;0.00;;;23.10;54.70;;;;;;5071513;28;20048;-66
2022/07/20 05:38:39;;;;;;;0.65;0.65;;;23.20;54.00;;;;;;5058992;28;20033;-66
2022/07/20 05:41:05;;;;;;;0.00;0.00;;;23.20;53.70;;;;;;5055362;28;20536;-66
2022/07/20 05:43:31;;;;;;;0.00;0.00;;;23.30;53.30;;;;;;5060763;28;20497;-66
2022/07/20 05:45:58;;;;;;;0.00;0.00;;;23.40;53.10;;;;;;5059632;28;20060;-66
2022/07/20 05:48:23;;;;;;;0.20;0.20;;;23.50;53.00;;;;;;5058825;28;20776;-66
2022/07/20 05:50:49;;;;;;;0.00;0.00;;;23.50;53.00;;;;;;5059852;28;20061;-66
2022/07/20 05:53:15;;;;;;;0.00;0.00;;;23.60;52.90;;;;;;5054971;28;20406;-66
2022/07/20 05:55:41;;;;;;;0.00;0.00;;;23.60;53.00;;;;;;5051213;28;20057;-66
2022/07/20 05:58:08;;;;;;;0.00;0.00;;;23.60;53.00;;;;;;5050832;28;20029;-66
2022/07/20 06:00:34;;;;;;;0.00;0.00;;;23.60;53.20;;;;;;5051167;28;20053;-66
2022/07/20 06:03:00;;;;;;;0.00;0.00;;;23.70;53.50;;;;;;5056341;28;20045;-66
2022/07/20 06:05:26;;;;;;;0.00;0.00;;;23.70;53.50;;;;;;5070690;28;20052;-67
2022/07/20 06:07:57;;;;;;;0.00;0.00;;;23.80;54.00;;;;;;5062250;28;20067;-67
2022/07/20 06:10:23;;;;;;;0.00;0.00;;;23.70;54.20;;;;;;5050385;28;20064;-67
2022/07/20 06:12:49;;;;;;;0.00;0.00;;;23.80;54.10;;;;;;5050666;28;20391;-67
2022/07/20 06:15:15;;;;;;;0.00;0.00;;;23.90;54.90;;;;;;5052568;28;20064;-67
2022/07/20 06:17:41;;;;;;;0.00;0.00;;;23.80;55.40;;;;;;5057897;28;20136;-67
2022/07/20 06:20:12;;;;;;;0.00;0.00;;;23.90;55.90;;;;;;5064698;28;20532;-69
2022/07/20 06:22:38;;;;;;;;;;;24.00;56.50;;;;;;5060642;28;20044;-68
2022/07/20 06:25:06;;;;;;;0.00;0.00;;;24.00;56.40;;;;;;5070929;28;20339;-68
2022/07/20 06:27:32;;;;;;;0.20;0.10;;;24.00;57.80;;;;;;5069957;28;20056;-68
2022/07/20 06:29:58;;;;;;;0.00;0.00;;;24.00;58.30;;;;;;5069869;28;20565;-68
2022/07/20 06:32:24;;;;;;;0.00;0.00;;;24.10;59.60;;;;;;5066438;28;20044;-68
2022/07/20 06:34:50;;;;;;;0.00;0.00;;;24.10;58.80;;;;;;5049077;28;20067;-68
2022/07/20 06:37:16;;;;;;;0.00;0.00;;;24.20;59.40;;;;;;5033022;28;20486;-68
2022/07/20 06:39:42;;;;;;;0.38;0.30;;;24.20;59.80;;;;;;5059455;28;20052;-69
2022/07/20 06:42:07;;;;;;;0.00;0.00;;;24.20;59.60;;;;;;5062476;28;20041;-68
2022/07/20 06:44:33;;;;;;;0.00;0.00;;;24.30;62.30;;;;;;5066921;28;20048;-68
2022/07/20 06:46:59;;;;;;;0.00;0.00;;;24.30;62.50;;;;;;5067399;28;20127;-68
2022/07/20 06:49:26;;;;;;;0.10;0.10;;;24.30;64.30;;;;;;5069559;28;20420;-67
2022/07/20 06:51:52;;;;;;;0.20;0.20;;;24.30;63.90;;;;;;5055099;28;20052;-68
2022/07/20 06:54:17;;;;;;;0.20;0.20;;;24.40;64.50;;;;;;5061521;28;20036;-68
2022/07/20 06:56:43;;;;;;;0.20;0.20;;;24.40;64.50;;;;;;5052194;28;20052;-68
2022/07/20 06:59:09;;;;;;;0.30;0.30;;;24.50;66.60;;;;;;5063681;28;20493;-68
2022/07/20 07:01:35;;;;;;;0.20;0.20;;;24.50;66.40;;;;;;5057910;28;20044;-67
2022/07/20 07:04:00;;;;;;;0.17;0.17;;;24.50;65.30;;;;;;5061298;28;20444;-67
2022/07/20 07:06:28;;;;;;;0.57;0.57;;;24.50;65.70;;;;;;5059453;28;20445;-68
2022/07/20 07:08:55;;;;;;;0.13;0.13;;;24.50;64.90;;;;;;5056393;28;20051;-67
2022/07/20 07:11:21;;;;;;;0.20;0.20;;;24.50;67.00;;;;;;5072912;28;20119;-67
2022/07/20 07:13:46;;;;;;;0.28;0.28;;;24.50;67.10;;;;;;5050016;28;20040;-67
2022/07/20 07:16:12;;;;;;;1.13;1.05;;;24.60;67.70;;;;;;5069081;28;20052;-68
2022/07/20 07:18:37;;;;;;;0.30;0.30;;;24.50;69.50;;;;;;5048843;28;20037;-68
2022/07/20 07:21:04;;;;;;;0.98;0.90;;;24.50;68.90;;;;;;5049685;28;20045;-67
2022/07/20 07:23:29;;;;;;;0.57;0.50;;;24.50;69.70;;;;;;5059147;28;20739;-67
2022/07/20 07:25:55;;;;;;;1.15;0.90;;;24.50;68.20;;;;;;5057357;28;20064;-67
2022/07/20 07:28:21;;;;;;;0.00;0.00;;;24.50;67.90;;;;;;5066219;28;20048;-67
2022/07/20 07:30:49;;;;;;;0.25;0.25;;;24.60;68.30;;;;;;5065275;28;20577;-66
2022/07/20 07:33:14;;;;;;;4.05;1.90;;;24.60;69.60;;;;;;5049726;28;20095;-67
2022/07/20 07:35:40;;;;;;;0.13;0.13;;;24.60;70.60;;;;;;5055576;28;20041;-67
2022/07/20 07:38:06;;;;;;;0.35;0.35;;;24.70;70.70;;;;;;5066217;28;20562;-67
2022/07/20 07:40:31;;;;;;;0.30;0.25;;;24.70;70.00;;;;;;5068323;28;20048;-67
2022/07/20 07:42:57;;;;;;;0.10;0.10;;;24.80;69.10;;;;;;5068956;28;20091;-68
2022/07/20 07:45:22;;;;;;;0.73;0.73;;;24.80;67.80;;;;;;5051025;28;20041;-67
2022/07/20 07:47:48;;;;;;;0.15;0.15;;;24.90;68.00;;;;;;5053327;28;20090;-67
2022/07/20 07:50:14;;;;;;;0.80;0.75;;;25.00;67.30;;;;;;5051457;28;20033;-68
2022/07/20 07:52:39;;;;;;;1.15;1.10;;;25.00;68.20;;;;;;5059118;28;20049;-67
2022/07/20 07:55:05;;;;;;;0.20;0.20;;;25.00;68.80;;;;;;5066604;28;20516;-67
2022/07/20 07:57:31;;;;;;;0.00;0.00;;;25.00;68.30;;;;;;5050309;28;20053;-66
2022/07/20 07:59:57;;;;;;;10.85;1.10;;;25.00;68.20;;;;;;5065158;28;20621;-67
2022/07/20 08:02:22;;;;;;;0.32;0.32;;;25.10;68.30;;;;;;5067020;28;20092;-66
2022/07/20 08:04:48;;;;;;;1.75;1.65;;;25.10;68.20;;;;;;5068103;28;20507;-67
2022/07/20 08:07:14;;;;;;;0.45;0.38;;;25.10;67.20;;;;;;5056380;28;20048;-67
2022/07/20 08:09:39;;;;;;;0.80;0.30;;;25.20;67.00;;;;;;5058833;28;20943;-67
2022/07/20 08:12:06;;;;;;;0.22;0.17;;;25.20;67.50;;;;;;5048720;28;20168;-67
2022/07/20 08:14:32;;;;;;;5.65;1.27;;;25.30;67.80;;;;;;5068185;28;20139;-66
2022/07/20 08:16:58;;;;;;;0.38;0.38;;;25.30;66.80;;;;;;5054093;28;20395;-67
2022/07/20 08:19:23;;;;;;;0.63;0.63;;;25.30;67.00;;;;;;5049504;28;20045;-67
2022/07/20 08:21:49;;;;;;;0.90;0.88;;;25.50;67.00;;;;;;5054846;28;20387;-67
2022/07/20 08:24:16;;;;;;;1.98;1.85;;;25.50;67.30;;;;;;5054206;28;20036;-68
2022/07/20 08:26:43;;;;;;;0.98;0.85;;;25.50;66.70;;;;;;5051971;28;20115;-67
2022/07/20 08:29:08;;;;;;;0.20;0.20;;;25.60;66.70;;;;;;5049613;28;20047;-68
2022/07/20 08:31:34;;;;;;;5.15;2.13;;;25.60;67.40;;;;;;5066945;28;20049;-66
2022/07/20 08:34:00;;;;;;;1.55;1.45;;;25.70;66.00;;;;;;5068770;28;20056;-67
2022/07/20 08:36:26;;;;;;;0.45;0.45;;;25.80;66.90;;;;;;5066287;28;20102;-67
2022/07/20 08:38:51;;;;;;;0.73;0.73;;;25.80;65.60;;;;;;5043106;28;20051;-66
2022/07/20 08:41:17;;;;;;;0.60;0.60;;;25.80;64.50;;;;;;5049330;28;20040;-66
2022/07/20 08:43:43;;;;;;;0.30;0.30;;;25.80;63.90;;;;;;5064978;28;20124;-66
2022/07/20 08:46:11;;;;;;;0.38;0.38;;;25.70;64.40;;;;;;5066727;28;20485;-66
2022/07/20 08:48:36;;;;;;;1.13;1.02;;;25.80;63.90;;;;;;5053749;28;20044;-67
2022/07/20 08:51:03;;;;;;;3.83;1.08;;;25.70;64.10;;;;;;5030982;28;20421;-67
2022/07/20 08:53:28;;;;;;;9.15;3.83;;;25.70;64.40;;;;;;5054436;28;20045;-67
2022/07/20 08:55:54;;;;;;;0.75;0.75;;;25.70;64.80;;;;;;5068921;28;20106;-66
2022/07/20 08:58:19;;;;;;;0.25;0.25;;;25.70;64.40;;;;;;5068467;28;20048;-66
2022/07/20 09:00:45;;;;;;;0.47;0.47;;;25.70;63.30;;;;;;5068530;28;20044;-65
2022/07/20 09:03:12;;;;;;;3.65;2.15;;;25.60;61.10;;;;;;5066813;28;20036;-67
2022/07/20 09:05:40;;;;;;;1.27;0.57;;;25.70;60.30;;;;;;5063919;28;20088;-66
2022/07/20 09:08:10;;;;;;;1.75;0.73;;;25.50;61.30;;;;;;5050078;28;20490;-66
2022/07/20 09:10:38;;;;;;;3.22;0.45;;;25.60;61.10;;;;;;5058657;28;20501;-66
2022/07/20 09:13:14;;;;;;;1.27;1.17;;;25.60;60.60;;;;;;5064187;28;20045;-66
2022/07/20 09:15:53;;;;;;;0.40;0.38;;;25.60;61.50;;;;;;5053582;28;20097;-66
2022/07/20 09:18:20;;;;;;;0.68;0.68;;;25.70;62.20;;;;;;5063981;28;20049;-68
2022/07/20 09:20:53;;;;;;;4.28;0.50;;;25.70;62.10;;;;;;5053612;28;20059;-66
2022/07/20 09:23:23;;;;;;;1.98;1.20;;;25.80;62.60;;;;;;5063929;28;20076;-66
2022/07/20 09:25:56;;;;;;;12.10;2.83;;;25.80;63.00;;;;;;5059683;28;20119;-67
2022/07/20 09:28:32;;;;;;;0.28;0.28;;;25.80;64.00;;;;;;5054052;28;20045;-67
2022/07/20 09:30:58;;;;;;;0.43;0.43;;;25.90;62.60;;;;;;5052914;28;20052;-66
2022/07/20 09:33:29;;;;;;;1.42;1.25;;;25.90;62.30;;;;;;5056313;28;20037;-66
2022/07/20 09:35:56;;;;;;;0.13;0.13;;;25.90;59.00;;;;;;5062854;28;20149;-67
2022/07/20 09:38:37;;;;;;;0.28;0.28;;;26.00;59.70;;;;;;5064581;28;20045;-66
2022/07/20 09:41:20;;;;;;;1.50;1.40;;;26.00;60.70;;;;;;5069746;28;20048;-67
2022/07/20 09:43:46;;;;;;;0.60;0.60;;;26.00;60.50;;;;;;5068492;28;20504;-67
2022/07/20 09:46:17;;;;;;;0.90;0.70;;;26.00;57.40;;;;;;5053615;28;20125;-70
2022/07/20 09:48:46;;;;;;;0.00;0.00;;;26.00;57.10;;;;;;5061045;28;20527;-66
2022/07/20 09:51:41;;;;;;;0.00;0.00;;;26.00;58.90;;;;;;5069523;28;20056;-68
2022/07/20 09:54:10;;;;;;;0.20;0.20;;;26.10;57.70;;;;;;5057639;28;20032;-67
2022/07/20 09:56:38;;;;;;;1.08;0.98;;;26.20;58.00;;;;;;5058101;28;20037;-65
2022/07/20 09:59:07;;;;;;;0.20;0.20;;;26.10;58.60;;;;;;5070447;28;20048;-66
2022/07/20 10:01:36;;;;;;;0.20;0.17;;;26.20;58.60;;;;;;5071125;28;20067;-65
2022/07/20 10:04:05;;;;;;;0.20;0.20;;;26.30;58.10;;;;;;5065491;28;20571;-65
2022/07/20 10:06:32;;;;;;;0.70;0.70;;;26.40;57.60;;;;;;5052280;28;20045;-66
2022/07/20 10:08:58;;;;;;;0.43;0.43;;;26.40;57.80;;;;;;5052706;28;20592;-66
2022/07/20 10:11:25;;;;;;;0.00;0.00;;;26.40;56.70;;;;;;5071167;28;20053;-66
2022/07/20 10:13:52;;;;;;;0.10;0.10;;;26.40;57.10;;;;;;5068409;28;20087;-66
2022/07/20 10:16:24;;;;;;;0.00;0.00;;;26.40;57.20;;;;;;5064669;28;20052;-65
2022/07/20 10:18:52;;;;;;;0.30;0.20;;;26.40;56.20;;;;;;5055841;28;20033;-66
2022/07/20 10:21:36;;;;;;;0.28;0.28;;;26.50;56.40;;;;;;5058567;28;20052;-66
2022/07/20 10:24:27;;;;;;;0.00;0.00;;;26.50;54.40;;;;;;5060664;28;20049;-66
2022/07/20 10:26:55;;;;;;;;;;;26.50;54.20;;;;;;5051488;28;20130;-66
2022/07/20 10:29:35;;;;;;;0.10;0.10;;;26.50;54.10;;;;;;5050470;28;19967;-66
2022/07/20 10:32:11;;;;;;;0.73;0.73;;;26.50;53.70;;;;;;5063123;28;20501;-66
2022/07/20 10:34:43;;;;;;;0.75;0.75;;;26.50;54.10;;;;;;5069161;28;20052;-66
2022/07/20 10:37:23;;;;;;;0.20;0.20;;;26.60;52.80;;;;;;5070571;28;20068;-66
2022/07/20 10:39:50;;;;;;;0.10;0.10;;;26.60;51.60;;;;;;5068831;28;20044;-66
2022/07/20 10:42:19;;;;;;;3.03;1.08;;;26.70;51.10;;;;;;5062396;28;20342;-66
2022/07/20 10:44:45;;;;;;;1.85;0.55;;;26.70;50.40;;;;;;5055651;28;20417;-66
2022/07/20 10:47:44;;;;;;;0.20;0.20;;;26.60;51.70;;;;;;5056761;28;20033;-66
2022/07/20 10:50:33;;;;;;;0.45;0.45;;;26.70;51.50;;;;;;5050511;28;20045;-66
2022/07/20 10:53:11;;;;;;;0.00;0.00;;;26.70;51.90;;;;;;5050181;28;20052;-66
2022/07/20 10:55:36;;;;;;;0.20;0.20;;;26.80;53.00;;;;;;5050077;28;20049;-66
2022/07/20 10:58:04;;;;;;;0.15;0.15;;;26.90;50.30;;;;;;5052011;28;20383;-65
2022/07/20 11:00:32;;;;;;;0.75;0.50;;;26.90;51.10;;;;;;5066113;28;20056;-66
2022/07/20 11:02:59;;;;;;;0.28;0.28;;;27.00;51.50;;;;;;5050434;28;20048;-66
2022/07/20 11:05:24;;;;;;;0.10;0.10;;;27.00;51.00;;;;;;5050179;28;20529;-67
2022/07/20 11:07:50;;;;;;;0.17;0.17;;;27.00;51.90;;;;;;5050258;28;20045;-66
2022/07/20 11:10:27;;;;;;;0.68;0.68;;;27.00;51.60;;;;;;5052995;28;20096;-67
2022/07/20 11:13:13;;;;;;;0.20;0.20;;;27.00;51.90;;;;;;5057887;28;20047;-66
2022/07/20 11:15:44;;;;;;;0.10;0.10;;;27.10;52.40;;;;;;5049465;28;20057;-66
2022/07/20 11:18:12;;;;;;;0.00;0.00;;;27.10;52.00;;;;;;5058830;28;20037;-67
2022/07/20 11:20:48;;;;;;;0.15;0.15;;;27.10;51.90;;;;;;5050138;28;20168;-66
2022/07/20 11:23:16;;;;;;;0.00;0.00;;;27.20;51.90;;;;;;5054290;28;20037;-66
2022/07/20 11:25:52;;;;;;;0.43;0.43;;;27.20;51.60;;;;;;5054470;28;20090;-66
2022/07/20 11:28:24;;;;;;;0.45;0.45;;;27.20;51.80;;;;;;5056799;28;20044;-66
2022/07/20 11:30:52;;;;;;;0.30;0.30;;;27.30;51.50;;;;;;5054922;28;20040;-66
2022/07/20 11:33:29;;;;;;;9.48;2.70;;;27.30;50.50;;;;;;5061055;28;20136;-66
2022/07/20 11:36:02;;;;;;;3.40;0.35;;;27.30;50.90;;;;;;5050347;28;20081;-67
2022/07/20 11:38:36;;;;;;;0.00;0.00;;;27.40;50.30;;;;;;5050221;28;20048;-66
2022/07/20 11:41:04;;;;;;;0.08;0.08;;;27.30;51.10;;;;;;5055585;28;20501;-66
2022/07/20 11:43:30;;;;;;;0.00;0.00;;;27.30;50.20;;;;;;5066531;28;20040;-67
2022/07/20 11:46:12;;;;;;;0.22;0.22;;;27.40;49.90;;;;;;5052323;28;20129;-66
2022/07/20 11:48:38;;;;;;;0.10;0.10;;;27.40;49.80;;;;;;5068190;28;20651;-66
2022/07/20 11:51:05;;;;;;;0.57;0.57;;;27.40;51.10;;;;;;5053023;28;20041;-67
2022/07/20 11:53:40;;;;;;;0.20;0.20;;;27.50;51.10;;;;;;5049762;28;20033;-66
2022/07/20 11:56:17;;;;;;;0.38;0.38;;;27.50;50.90;;;;;;5058476;28;20037;-66
2022/07/20 11:58:45;;;;;;;0.25;0.25;;;27.50;50.00;;;;;;5062613;28;20048;-66
2022/07/20 12:01:14;;;;;;;0.00;0.00;;;27.50;50.80;;;;;;5050190;28;20151;-66
2022/07/20 12:03:42;;;;;;;0.03;0.03;;;27.60;51.00;;;;;;5067410;28;20539;-66
2022/07/20 12:06:12;;;;;;;0.65;0.32;;;27.70;51.50;;;;;;5068847;28;20111;-65
2022/07/20 12:08:39;;;;;;;0.00;0.00;;;27.70;49.50;;;;;;5067332;28;20115;-65
2022/07/20 12:11:06;;;;;;;0.28;0.15;;;27.70;48.50;;;;;;5068555;28;20048;-66
2022/07/20 12:13:43;;;;;;;0.30;0.30;;;27.80;48.20;;;;;;5055495;28;20037;-66
2022/07/20 12:16:08;;;;;;;0.10;0.10;;;27.90;49.00;;;;;;5051531;28;20080;-66
2022/07/20 12:18:47;;;;;;;0.32;0.28;;;28.00;49.20;;;;;;5052357;28;20068;-66
2022/07/20 12:21:19;;;;;;;0.10;0.10;;;28.00;48.50;;;;;;5050454;28;20041;-67
2022/07/20 12:23:46;;;;;;;0.30;0.30;;;28.10;48.20;;;;;;5057978;28;20581;-67
2022/07/20 12:26:28;;;;;;;0.00;0.00;;;28.10;48.80;;;;;;5049967;28;20037;-66
2022/07/20 12:28:56;;;;;;;2.40;1.42;;;28.10;47.90;;;;;;5061098;28;20036;-67
2022/07/20 12:31:24;;;;;;;0.00;0.00;;;28.10;47.20;;;;;;5056017;28;20071;-67
2022/07/20 12:34:22;;;;;;;0.00;0.00;;;28.20;48.00;;;;;;5059565;28;20052;-66
2022/07/20 12:36:49;;;;;;;0.03;0.03;;;28.30;48.00;;;;;;5040044;28;20064;-66
2022/07/20 12:39:49;;;;;;;0.00;0.00;;;28.30;48.20;;;;;;5066768;28;20116;-67
2022/07/20 12:42:24;;;;;;;0.15;0.10;;;28.50;48.00;;;;;;5069191;28;20037;-66
2022/07/20 12:45:04;;;;;;;0.47;0.38;;;28.50;48.70;;;;;;5055202;28;20080;-66
2022/07/20 12:47:30;;;;;;;0.50;0.50;;;28.50;49.20;;;;;;5060297;28;20405;-67
2022/07/20 12:49:56;;;;;;;0.43;0.35;;;28.60;49.90;;;;;;5053901;28;20048;-66
2022/07/20 12:52:22;;;;;;;0.30;0.10;;;28.60;48.30;;;;;;5057617;28;20048;-66
2022/07/20 12:54:47;;;;;;;0.85;0.77;;;28.60;48.20;;;;;;5063170;28;20051;-66